Time;durP1;ratioP1;P1;durP2;ratioP2;P2;SDS_P1;SDS_P2;PMS_P1;PMS_P2;Temp;Humidity;BMP_temperature;BMP_pressure;BME280_temperature;BME280_humidity;BME280_pressure;Samples;Min_cycle;Max_cycle;Signal;HPM_P1;HPM_P2
2022/07/30 05:40:38;;;;;;;8.45;6.43;;;18.60;67.30;;;17.78;59.23;97809.50;5124618;27;20115;-37
2022/07/30 05:43:26;;;;;;;7.90;5.72;;;18.80;67.30;;;18.27;58.63;97821.84;5102677;28;20055;-38
2022/07/30 05:45:54;;;;;;;8.93;6.18;;;18.90;65.70;;;18.70;57.39;97809.81;5103510;28;20269;-38
2022/07/30 05:48:22;;;;;;;8.43;5.97;;;19.20;65.50;;;19.07;56.39;97812.88;5103031;28;20054;-38
2022/07/30 05:50:50;;;;;;;9.52;6.32;;;19.40;64.90;;;19.36;55.56;97816.13;5101910;28;20047;-38
2022/07/30 05:53:19;;;;;;;7.75;6.22;;;19.50;64.80;;;19.61;54.54;97822.44;5102096;28;20053;-39
2022/07/30 05:56:05;;;;;;;6.00;5.43;;;19.70;63.70;;;19.83;53.76;97820.31;5106182;28;20046;-39
2022/07/30 05:58:52;;;;;;;7.75;5.20;;;19.80;61.80;;;20.10;53.50;97819.31;5086428;28;20062;-39
2022/07/30 06:01:32;;;;;;;7.93;5.60;;;19.90;63.10;;;20.27;52.86;97823.97;5071446;28;20385;-39
2022/07/30 06:04:07;;;;;;;6.30;5.70;;;20.10;60.60;;;20.43;52.39;97828.03;5102738;28;20064;-39
2022/07/30 06:06:45;;;;;;;6.63;5.75;;;20.20;61.70;;;20.55;51.82;97825.44;5102193;28;20241;-39
2022/07/30 06:09:14;;;;;;;7.20;5.63;;;20.20;61.30;;;20.68;51.49;97821.81;5084758;28;20059;-39
2022/07/30 06:11:41;;;;;;;5.95;5.20;;;20.40;61.00;;;20.79;51.03;97829.19;5084936;28;20078;-39
2022/07/30 06:14:09;;;;;;;7.65;5.20;;;20.40;59.30;;;20.85;50.50;97830.19;5104592;28;20062;-39
2022/07/30 06:16:40;;;;;;;5.78;5.10;;;20.50;59.60;;;20.93;50.41;97829.91;5084332;28;20078;-39
2022/07/30 06:19:08;;;;;;;5.72;5.03;;;20.60;59.10;;;20.98;49.33;97830.06;5102181;28;20052;-39
2022/07/30 06:21:45;;;;;;;6.47;5.20;;;20.60;57.20;;;21.08;49.25;97832.25;5101502;28;20345;-39
2022/07/30 06:24:37;;;;;;;7.35;5.50;;;20.60;56.70;;;21.15;48.84;97843.84;5103237;28;20075;-39
2022/07/30 06:27:18;;;;;;;9.50;5.28;;;20.70;57.70;;;21.20;48.78;97840.47;5101503;28;20059;-39
2022/07/30 06:29:47;;;;;;;8.95;4.95;;;20.80;57.50;;;21.21;48.84;97836.72;5101237;28;20048;-39
2022/07/30 06:32:16;;;;;;;6.00;4.95;;;20.80;57.40;;;21.31;48.26;97841.59;5085793;28;20059;-39
2022/07/30 06:34:44;;;;;;;10.60;5.53;;;20.90;56.60;;;21.32;47.83;97835.94;5102614;28;20055;-38
2022/07/30 06:37:12;;;;;;;6.35;5.65;;;20.90;55.90;;;;;;5068720;28;20074;-38
2022/07/30 06:39:42;;;;;;;7.35;5.70;;;20.90;54.80;;;21.41;47.48;97831.88;5084279;28;20082;-39
2022/07/30 06:42:49;;;;;;;5.50;4.57;;;21.00;56.20;;;21.51;47.93;97842.22;5084378;28;20054;-39
2022/07/30 06:45:34;;;;;;;8.55;5.47;;;21.10;56.30;;;21.56;47.42;97846.97;5102202;28;20075;-39
2022/07/30 06:48:23;;;;;;;6.78;5.95;;;21.10;55.90;;;21.63;47.67;97847.69;5101839;28;20055;-39
2022/07/30 06:50:52;;;;;;;7.95;5.32;;;21.20;55.90;;;21.68;47.44;97847.03;5093770;28;20060;-39
2022/07/30 06:53:20;;;;;;;5.68;5.13;;;21.20;55.70;;;21.76;47.52;97847.53;5070743;28;20059;-39
2022/07/30 06:56:07;;;;;;;7.10;5.65;;;21.30;56.00;;;21.80;47.26;97853.31;5089772;28;20241;-39
2022/07/30 06:58:43;;;;;;;8.00;4.88;;;21.30;55.10;;;21.77;46.85;97849.19;5087183;28;20064;-38
2022/07/30 07:01:34;;;;;;;8.70;5.18;;;21.30;55.00;;;21.85;46.90;97864.31;5088523;28;20040;-39
2022/07/30 07:04:03;;;;;;;5.88;5.38;;;21.40;55.10;;;21.88;46.32;97857.59;5086852;28;20368;-39
2022/07/30 07:06:32;;;;;;;13.43;6.13;;;21.40;53.60;;;21.94;45.78;97862.94;5088317;28;20069;-38
2022/07/30 07:09:00;;;;;;;9.20;5.10;;;21.50;53.40;;;21.96;46.21;97860.00;5088305;28;20467;-39
2022/07/30 07:11:35;;;;;;;7.47;5.40;;;21.60;54.40;;;22.01;46.38;97860.16;5071219;28;20314;-39
2022/07/30 07:14:08;;;;;;;5.78;5.28;;;21.60;54.40;;;22.07;46.14;97859.22;5088239;28;20237;-39
2022/07/30 07:16:36;;;;;;;6.10;4.78;;;21.70;54.20;;;22.12;46.30;97856.66;5088999;28;20058;-39
2022/07/30 07:19:24;;;;;;;5.82;4.93;;;21.70;53.60;;;22.16;45.86;97857.84;5087780;28;20392;-38
2022/07/30 07:22:11;;;;;;;7.90;5.22;;;21.70;53.50;;;22.14;45.12;97865.38;5069113;28;20059;-38
2022/07/30 07:24:40;;;;;;;8.10;5.53;;;21.50;53.00;;;22.06;44.85;97871.09;5072189;28;20058;-39
2022/07/30 07:27:14;;;;;;;9.45;5.13;;;21.50;53.20;;;22.06;45.11;97867.56;5088160;28;20056;-39
2022/07/30 07:29:44;;;;;;;6.30;5.03;;;21.60;53.60;;;22.12;45.55;97863.94;5070750;28;20060;-39
2022/07/30 07:32:35;;;;;;;6.22;5.18;;;21.60;53.40;;;22.23;45.25;97857.72;5069411;28;20078;-41
2022/07/30 07:35:05;;;;;;;10.02;5.88;;;21.80;52.70;;;22.28;44.39;97862.50;5070871;28;20506;-41
2022/07/30 07:37:35;;;;;;;6.93;4.95;;;21.90;52.20;;;22.35;43.90;97863.22;5087264;28;20058;-41
2022/07/30 07:40:06;;;;;;;6.40;5.40;;;21.90;50.90;;;22.44;43.85;97863.72;5070500;28;20048;-41
2022/07/30 07:42:38;;;;;;;5.82;4.47;;;22.00;51.30;;;22.47;44.04;97871.38;5088804;28;20046;-40
2022/07/30 07:45:08;;;;;;;8.07;5.88;;;22.00;50.30;;;22.49;43.45;97870.13;5070461;28;20590;-41
2022/07/30 07:47:46;;;;;;;8.18;5.55;;;22.10;51.00;;;22.56;43.44;97870.00;5070349;28;20056;-41
2022/07/30 07:50:38;;;;;;;6.30;5.40;;;22.10;50.70;;;22.63;43.65;97869.91;5089946;28;20050;-40
2022/07/30 07:53:35;;;;;;;7.57;5.10;;;22.20;50.30;;;22.65;43.14;97862.38;5069569;28;20056;-40
2022/07/30 07:56:03;;;;;;;5.57;4.45;;;22.20;49.80;;;22.68;43.22;97865.44;5085916;28;20249;-41
2022/07/30 07:58:31;;;;;;;6.15;4.57;;;22.20;50.30;;;22.71;43.05;97866.84;5085835;28;20060;-41
2022/07/30 08:01:01;;;;;;;7.70;5.32;;;22.30;50.50;;;22.76;42.42;97867.81;5072634;28;20048;-40
2022/07/30 08:03:49;;;;;;;9.20;5.38;;;22.30;48.50;;;22.84;42.38;97860.34;5089821;28;20570;-41
2022/07/30 08:06:35;;;;;;;11.02;4.85;;;22.40;49.70;;;22.89;43.04;97865.91;5098704;28;20241;-41
2022/07/30 08:09:29;;;;;;;;;;;22.50;50.40;;;22.93;42.08;97869.81;5096621;28;20064;-41
2022/07/30 08:12:31;;;;;;;8.73;5.32;;;22.40;48.20;;;22.97;42.51;97860.13;5089590;28;19927;-41
2022/07/30 08:15:19;;;;;;;6.57;5.35;;;22.40;49.70;;;23.02;42.39;97868.41;5095653;28;20054;-42
2022/07/30 08:18:18;;;;;;;8.93;6.10;;;22.60;49.20;;;23.10;42.13;97864.53;5048229;28;20255;-41
2022/07/30 08:21:00;;;;;;;7.40;4.95;;;22.60;49.10;;;23.17;42.42;97867.97;5094677;28;20051;-41
2022/07/30 08:23:31;;;;;;;6.03;4.95;;;22.80;49.40;;;23.23;41.75;97868.91;5073976;28;20655;-41
2022/07/30 08:26:00;;;;;;;5.85;5.05;;;22.80;48.80;;;23.26;40.84;97876.56;5090925;28;20252;-41
2022/07/30 08:28:28;;;;;;;9.68;5.72;;;22.80;47.10;;;23.27;40.72;97864.66;5105856;28;20044;-42
2022/07/30 08:31:04;;;;;;;5.85;4.80;;;22.80;47.00;;;23.24;40.36;97867.84;5107707;28;20059;-41
2022/07/30 08:33:32;;;;;;;7.70;5.63;;;22.80;46.80;;;23.24;40.41;97862.41;5106672;28;20423;-42
2022/07/30 08:36:00;;;;;;;8.02;5.72;;;22.80;47.20;;;23.28;41.45;97869.00;5089564;28;20054;-41
2022/07/30 08:38:32;;;;;;;6.95;5.65;;;22.80;47.70;;;23.31;41.23;97861.22;5107331;28;20207;-41
2022/07/30 08:41:00;;;;;;;4.72;4.32;;;22.90;47.80;;;23.35;39.61;97861.56;5107509;28;20061;-41
2022/07/30 08:43:29;;;;;;;5.90;4.47;;;22.90;46.00;;;23.40;40.46;97867.13;5105682;28;20311;-41
2022/07/30 08:45:59;;;;;;;5.40;4.45;;;23.00;46.40;;;23.49;39.58;97867.56;5073199;28;20059;-41
2022/07/30 08:48:46;;;;;;;5.53;4.20;;;23.00;45.60;;;23.59;39.97;97855.03;5073938;28;20249;-42
2022/07/30 08:51:17;;;;;;;8.27;5.80;;;23.20;46.00;;;23.71;39.93;97865.03;5089580;28;20063;-41
2022/07/30 08:54:17;;;;;;;6.43;4.57;;;23.40;46.00;;;23.85;39.58;97866.44;5077795;28;20065;-42
2022/07/30 08:56:48;;;;;;;5.95;4.28;;;23.50;45.30;;;23.89;39.58;97862.19;5108210;28;20048;-41
2022/07/30 08:59:17;;;;;;;4.60;4.10;;;23.50;45.30;;;23.89;39.33;97867.63;5072601;28;20233;-41
2022/07/30 09:01:45;;;;;;;4.80;4.32;;;23.50;44.90;;;23.85;38.60;97869.16;5104141;28;20065;-41
2022/07/30 09:04:14;;;;;;;6.85;3.92;;;23.30;43.30;;;23.79;37.33;97878.28;5104786;28;20237;-41
2022/07/30 09:06:42;;;;;;;4.93;4.43;;;23.30;43.00;;;23.68;37.95;97862.81;5105640;28;20055;-41
2022/07/30 09:09:10;;;;;;;5.10;4.00;;;23.20;42.40;;;23.68;38.00;97865.53;5106307;28;20213;-41
2022/07/30 09:11:41;;;;;;;6.28;4.15;;;23.20;43.80;;;23.71;37.83;97865.88;5070883;28;20059;-41
2022/07/30 09:14:12;;;;;;;10.57;4.13;;;23.30;43.20;;;23.73;38.04;97865.63;5105588;28;20066;-41
2022/07/30 09:16:42;;;;;;;6.32;3.58;;;23.30;42.60;;;23.78;37.74;97868.47;5089581;28;20066;-41
2022/07/30 09:19:16;;;;;;;7.15;4.10;;;23.40;43.30;;;23.80;37.27;97871.78;5092092;28;20059;-41
2022/07/30 09:21:57;;;;;;;5.72;3.80;;;23.30;40.90;;;23.81;36.57;97873.44;5101592;28;20051;-41
2022/07/30 09:24:50;;;;;;;3.70;3.40;;;23.40;40.20;;;23.91;36.76;97870.09;5083204;28;20064;-41
2022/07/30 09:27:47;;;;;;;5.25;3.38;;;23.50;40.80;;;24.06;37.12;97864.97;5065427;28;20059;-41
2022/07/30 09:30:54;;;;;;;4.03;3.70;;;23.80;41.00;;;24.22;37.14;97876.13;5067268;28;20059;-41
2022/07/30 09:33:45;;;;;;;6.03;4.10;;;24.00;41.20;;;24.20;35.63;97868.22;5040352;28;20066;-41
2022/07/30 09:36:43;;;;;;;5.57;4.50;;;23.80;39.90;;;24.17;35.88;97863.25;5077730;28;20051;-41
2022/07/30 09:39:38;;;;;;;4.80;3.90;;;23.70;41.00;;;24.16;36.04;97867.88;5103385;28;20390;-41
2022/07/30 09:42:30;;;;;;;6.93;4.57;;;23.70;40.00;;;24.16;36.03;97867.88;5085713;28;20060;-41
2022/07/30 09:45:14;;;;;;;5.28;4.03;;;23.70;40.80;;;24.22;36.14;97878.84;5068448;28;20070;-41
2022/07/30 09:47:48;;;;;;;9.98;4.40;;;23.80;40.30;;;24.23;35.69;97873.13;5083948;28;20437;-41
2022/07/30 09:50:19;;;;;;;6.70;3.60;;;23.90;39.80;;;24.30;35.80;97865.66;5068466;28;20055;-41
2022/07/30 09:53:08;;;;;;;5.93;4.07;;;23.90;39.50;;;24.42;35.86;97862.06;5081719;28;20064;-41
2022/07/30 09:55:41;;;;;;;7.85;4.55;;;24.00;39.80;;;24.50;35.17;97856.22;5082194;28;20547;-41
2022/07/30 09:58:11;;;;;;;4.82;3.30;;;24.20;39.70;;;24.51;35.18;97869.59;5067804;28;20432;-41
2022/07/30 10:00:58;;;;;;;6.55;3.40;;;24.20;39.00;;;24.62;34.82;97858.88;5068319;28;20056;-41
2022/07/30 10:04:05;;;;;;;4.57;4.18;;;24.40;38.10;;;24.72;34.56;97859.06;5076412;28;20373;-41
2022/07/30 10:06:56;;;;;;;4.85;3.40;;;24.50;37.90;;;24.72;34.94;97859.91;5063738;28;20370;-41
2022/07/30 10:09:44;;;;;;;3.85;2.80;;;24.40;38.50;;;24.76;34.79;97863.75;5067137;28;20052;-41
2022/07/30 10:12:15;;;;;;;5.88;3.30;;;24.30;38.90;;;24.80;34.79;97855.94;5084171;28;20052;-41
2022/07/30 10:14:48;;;;;;;4.78;3.38;;;24.40;39.20;;;24.91;35.45;97854.19;5069254;28;20056;-41
2022/07/30 10:17:20;;;;;;;3.90;3.50;;;24.60;39.60;;;24.98;35.01;97852.13;5101678;28;20063;-41
2022/07/30 10:20:09;;;;;;;4.15;3.50;;;24.70;39.20;;;25.12;35.33;97852.59;5085122;28;20135;-41
2022/07/30 10:22:58;;;;;;;5.57;3.42;;;24.90;39.40;;;25.17;35.03;97858.13;5089751;28;20217;-41
2022/07/30 10:25:36;;;;;;;7.38;4.00;;;24.90;39.70;;;25.23;35.17;97845.44;5072654;28;20054;-41
2022/07/30 10:28:40;;;;;;;4.35;3.95;;;25.00;39.40;;;25.30;34.79;97846.06;5095365;28;20360;-41
2022/07/30 10:31:08;;;;;;;6.55;4.07;;;25.00;39.20;;;25.27;34.52;97852.84;5091284;28;20255;-41
2022/07/30 10:33:57;;;;;;;5.60;3.90;;;24.80;39.10;;;25.21;34.75;97844.84;5089874;28;20070;-41
2022/07/30 10:36:25;;;;;;;7.38;3.97;;;24.80;39.50;;;25.18;34.68;97854.31;5105597;27;20047;-40
2022/07/30 10:38:55;;;;;;;5.18;4.45;;;24.70;39.20;;;25.14;33.89;97850.44;5087299;28;20349;-41
2022/07/30 10:42:02;;;;;;;4.22;3.38;;;24.60;37.80;;;25.16;33.84;97851.00;5088135;28;20044;-41
2022/07/30 10:44:37;;;;;;;5.82;3.65;;;24.80;37.00;;;25.25;33.32;97840.56;5090260;28;20245;-41
2022/07/30 10:47:12;;;;;;;4.00;3.38;;;24.90;36.90;;;25.37;33.75;97859.50;5089880;28;20046;-40
2022/07/30 10:49:40;;;;;;;5.20;3.15;;;25.00;37.60;;;25.30;33.47;97846.06;5103433;28;20338;-41
2022/07/30 10:52:10;;;;;;;3.35;2.80;;;25.00;37.20;;;25.30;32.83;97843.34;5104174;28;20048;-41
2022/07/30 10:54:46;;;;;;;2.90;2.65;;;24.90;36.50;;;25.31;32.95;97832.19;5088306;28;20048;-40
2022/07/30 10:57:17;;;;;;;3.92;2.88;;;25.00;36.70;;;25.38;32.64;97837.47;5088774;28;20048;-41
2022/07/30 10:59:58;;;;;;;4.97;2.67;;;25.10;36.20;;;25.46;33.21;97845.19;5087443;28;20056;-40
2022/07/30 11:02:28;;;;;;;3.63;2.75;;;25.20;36.90;;;25.50;32.55;97857.25;5089035;28;20063;-40
2022/07/30 11:05:22;;;;;;;3.30;2.83;;;25.20;35.40;;;25.51;32.70;97845.28;5070187;28;20060;-41
2022/07/30 11:08:37;;;;;;;5.65;3.28;;;25.20;35.30;;;25.53;31.66;97854.03;5072187;28;20082;-40
2022/07/30 11:11:21;;;;;;;4.63;3.63;;;25.10;34.90;;;25.57;32.56;97851.63;5087190;28;20058;-41
2022/07/30 11:14:09;;;;;;;4.57;3.05;;;25.10;35.70;;;25.54;32.05;97842.03;5087986;28;20042;-40
2022/07/30 11:16:39;;;;;;;5.85;3.03;;;25.00;36.00;;;25.52;32.12;97846.91;5087922;28;20040;-41
2022/07/30 11:19:23;;;;;;;5.88;3.38;;;25.10;36.00;;;25.56;32.57;97838.25;5088241;28;20048;-41
2022/07/30 11:22:30;;;;;;;4.40;3.53;;;25.20;35.50;;;25.69;32.45;97833.22;5088692;28;20368;-41
2022/07/30 11:25:00;;;;;;;3.53;2.92;;;25.40;35.10;;;25.84;31.49;97839.94;5089207;28;20043;-40
2022/07/30 11:27:45;;;;;;;8.57;3.35;;;25.50;34.70;;;25.91;31.47;97855.03;5088865;28;20052;-40
2022/07/30 11:30:15;;;;;;;4.10;3.15;;;25.60;34.10;;;25.89;31.27;97838.09;5089249;28;20048;-40
2022/07/30 11:32:52;;;;;;;4.38;2.95;;;25.50;34.60;;;25.85;30.92;97834.22;5087319;28;20377;-40
2022/07/30 11:35:29;;;;;;;3.20;2.88;;;25.40;33.20;;;25.96;31.71;97826.19;5055507;28;20047;-40
2022/07/30 11:38:11;;;;;;;5.47;3.35;;;25.60;34.60;;;26.06;30.72;97834.50;5087746;28;20055;-40
2022/07/30 11:40:43;;;;;;;8.68;3.35;;;25.70;33.40;;;26.07;30.89;97825.22;5088578;28;20350;-40
2022/07/30 11:43:24;;;;;;;3.22;2.92;;;25.80;33.80;;;26.20;31.05;97829.44;5088105;28;20050;-41
2022/07/30 11:46:22;;;;;;;3.80;2.72;;;25.90;33.30;;;26.25;30.96;97819.41;5087979;28;20048;-41
2022/07/30 11:48:57;;;;;;;3.72;2.60;;;26.00;34.20;;;26.36;30.95;97825.75;5087941;28;20089;-41
2022/07/30 11:51:26;;;;;;;5.68;2.92;;;26.20;34.30;;;26.45;30.70;97826.94;5085724;28;20082;-41
2022/07/30 11:54:09;;;;;;;3.10;2.80;;;26.30;33.10;;;26.59;30.51;97826.53;5088197;28;20060;-40
2022/07/30 11:56:50;;;;;;;4.25;2.90;;;26.40;32.90;;;26.69;30.11;97819.25;5088537;28;20446;-40
2022/07/30 11:59:18;;;;;;;4.32;2.50;;;26.50;31.90;;;26.64;29.76;97816.50;5087656;28;20044;-40
2022/07/30 12:02:00;;;;;;;3.00;2.70;;;26.30;32.50;;;26.67;30.38;97820.59;5069177;28;20373;-40
2022/07/30 12:04:29;;;;;;;4.57;2.60;;;26.30;32.70;;;26.71;30.37;97808.91;5086905;28;20345;-40
2022/07/30 12:06:57;;;;;;;4.10;3.40;;;26.40;32.80;;;26.77;30.07;97815.22;5068062;28;20494;-40
2022/07/30 12:09:30;;;;;;;3.67;2.30;;;26.50;33.40;;;26.82;30.00;97808.97;5070786;28;20078;-40
2022/07/30 12:12:01;;;;;;;6.57;3.22;;;26.50;33.00;;;26.77;30.25;97823.41;5087712;28;20040;-40
2022/07/30 12:14:38;;;;;;;2.60;2.40;;;26.30;33.20;;;26.77;30.02;97809.75;5087667;28;20058;-40
2022/07/30 12:17:05;;;;;;;3.78;2.33;;;26.40;33.20;;;26.84;30.34;97791.22;5085358;28;20066;-40
2022/07/30 12:19:46;;;;;;;3.47;2.45;;;26.50;33.10;;;26.96;30.08;97806.59;5086768;28;20048;-40
2022/07/30 12:22:15;;;;;;;2.97;2.67;;;26.70;32.40;;;27.05;29.37;97800.38;5087590;28;20050;-40
2022/07/30 12:24:43;;;;;;;2.88;2.40;;;26.80;32.10;;;27.04;28.72;97793.25;5069983;28;20043;-39
2022/07/30 12:27:11;;;;;;;2.45;2.13;;;26.60;30.60;;;27.09;28.84;97803.41;5086398;28;20052;-41
2022/07/30 12:29:40;;;;;;;3.00;2.50;;;26.50;31.40;;;27.19;29.07;97819.84;5086032;28;20444;-41
2022/07/30 12:32:08;;;;;;;3.00;2.67;;;26.80;31.40;;;27.29;29.28;97803.53;5085689;28;20058;-41
2022/07/30 12:34:36;;;;;;;7.93;3.30;;;27.10;32.10;;;27.35;28.92;97806.31;5070323;28;20043;-41
2022/07/30 12:37:08;;;;;;;4.03;2.83;;;27.00;31.70;;;27.48;28.80;97790.22;5087995;28;20048;-42
2022/07/30 12:39:37;;;;;;;2.67;2.47;;;27.30;32.00;;;27.53;28.82;97811.31;5086651;28;20056;-41
2022/07/30 12:42:20;;;;;;;3.17;2.88;;;27.00;32.20;;;27.48;29.15;97801.16;5087097;28;20043;-41
2022/07/30 12:44:49;;;;;;;5.55;2.95;;;27.00;32.30;;;27.53;28.90;97802.28;5087060;28;20372;-41
2022/07/30 12:47:25;;;;;;;3.90;2.70;;;27.10;32.30;;;27.47;28.92;97805.00;5087359;28;20054;-42
2022/07/30 12:49:59;;;;;;;2.90;2.55;;;27.00;31.80;;;27.41;28.29;97799.78;5069170;28;20048;-42
2022/07/30 12:52:33;;;;;;;3.85;3.15;;;27.00;31.30;;;27.39;28.81;97793.75;5069767;28;20125;-41
2022/07/30 12:55:03;;;;;;;;;;;26.90;31.10;;;27.49;28.73;97789.16;5088669;28;20070;-41
2022/07/30 12:58:03;;;;;;;3.28;2.47;;;27.10;31.50;;;27.72;28.98;97772.53;5084034;28;19916;-41
2022/07/30 13:00:50;;;;;;;4.68;2.47;;;27.50;30.90;;;27.83;28.71;97779.69;5069626;28;20070;-41
2022/07/30 13:03:28;;;;;;;3.65;2.97;;;27.60;30.90;;;27.89;29.01;97778.63;5085899;28;20352;-41
2022/07/30 13:05:56;;;;;;;3.33;3.03;;;27.70;31.20;;;28.10;28.95;97778.69;5070155;28;20070;-41
2022/07/30 13:08:53;;;;;;;3.53;2.67;;;28.00;31.40;;;28.22;28.05;97774.56;5087250;28;20039;-41
2022/07/30 13:11:35;;;;;;;5.10;2.55;;;28.10;29.80;;;28.38;27.71;97760.88;5085687;28;20051;-41
2022/07/30 13:14:04;;;;;;;3.13;2.50;;;28.30;30.00;;;28.56;28.19;97765.84;5086420;28;20060;-41
2022/07/30 13:16:34;;;;;;;3.28;3.05;;;28.50;29.90;;;28.67;27.70;97756.53;5085739;28;20237;-41
2022/07/30 13:19:04;;;;;;;3.50;3.17;;;28.60;30.00;;;28.81;27.42;97773.22;5086002;28;20050;-41
2022/07/30 13:21:33;;;;;;;3.03;2.30;;;28.60;29.00;;;28.78;27.14;97751.84;5086487;28;20040;-41
2022/07/30 13:24:01;;;;;;;3.15;2.70;;;28.60;29.90;;;28.96;27.12;97757.84;5086890;28;20240;-41
2022/07/30 13:26:29;;;;;;;3.67;2.65;;;28.70;28.80;;;29.13;27.15;97755.63;5067777;28;20050;-41
2022/07/30 13:28:57;;;;;;;3.22;2.92;;;29.10;29.70;;;29.31;26.87;97750.63;5087042;28;20058;-41
2022/07/30 13:31:29;;;;;;;2.72;2.53;;;29.30;29.40;;;29.39;26.83;97752.78;5086990;28;20047;-41
2022/07/30 13:34:10;;;;;;;2.90;2.35;;;29.40;29.00;;;29.48;25.99;97744.81;5070723;28;20063;-42
2022/07/30 13:36:38;;;;;;;3.53;2.92;;;29.30;28.90;;;29.61;26.40;97745.00;5086859;28;20066;-41
2022/07/30 13:39:07;;;;;;;5.40;3.20;;;29.50;29.30;;;29.71;25.77;97757.84;5086048;28;20051;-41
2022/07/30 13:41:35;;;;;;;3.15;2.85;;;29.50;28.70;;;29.68;25.89;97743.88;5085946;28;20066;-41
2022/07/30 13:44:03;;;;;;;2.88;2.65;;;29.30;29.00;;;29.63;25.65;97742.78;5086839;28;20050;-42
2022/07/30 13:46:32;;;;;;;2.88;2.45;;;29.30;28.50;;;29.75;25.77;97744.41;5086144;28;20063;-41
2022/07/30 13:49:00;;;;;;;3.58;3.20;;;29.40;28.80;;;29.85;25.71;97744.34;5068037;28;20052;-41
2022/07/30 13:51:28;;;;;;;2.85;2.60;;;29.50;28.80;;;30.00;25.85;97737.94;5086165;28;20060;-41
2022/07/30 13:53:55;;;;;;;4.28;2.70;;;29.80;28.70;;;30.09;25.72;97740.88;5087059;28;20058;-41
2022/07/30 13:56:23;;;;;;;3.97;3.13;;;29.80;28.50;;;30.18;25.75;97729.00;5086495;28;20052;-42
2022/07/30 13:58:51;;;;;;;3.05;2.75;;;30.00;28.80;;;30.31;25.46;97726.72;5085417;28;20478;-41
2022/07/30 14:01:19;;;;;;;2.63;2.42;;;30.10;28.60;;;30.17;24.75;97732.06;5087586;28;20054;-41
2022/07/30 14:03:48;;;;;;;3.15;2.63;;;29.50;28.00;;;29.90;25.24;97730.59;5090543;28;20258;-41
2022/07/30 14:06:18;;;;;;;3.90;2.88;;;29.20;28.70;;;29.70;24.95;97734.28;5090574;28;20040;-41
2022/07/30 14:08:46;;;;;;;2.60;2.40;;;28.90;28.20;;;29.73;25.17;97728.22;5073424;28;20044;-42
2022/07/30 14:11:15;;;;;;;3.13;2.78;;;29.10;28.50;;;29.87;24.69;97713.88;5089725;28;20257;-42
2022/07/30 14:13:44;;;;;;;3.25;2.83;;;29.40;28.10;;;30.03;25.17;97723.63;5069622;28;20573;-41
2022/07/30 14:16:12;;;;;;;4.47;2.70;;;29.70;28.20;;;30.24;24.82;97716.06;5088564;28;20056;-41
2022/07/30 14:19:01;;;;;;;3.83;2.88;;;30.10;28.00;;;30.34;24.63;97715.19;5086426;28;20059;-41
2022/07/30 14:21:29;;;;;;;3.60;2.67;;;30.10;27.90;;;30.42;24.69;97718.13;5088926;28;20050;-41
2022/07/30 14:23:57;;;;;;;3.55;2.83;;;30.10;27.60;;;30.54;24.38;97716.94;5086240;28;20224;-41
2022/07/30 14:26:24;;;;;;;3.08;2.78;;;30.20;27.90;;;30.75;24.10;97720.31;5089799;28;20048;-41
2022/07/30 14:29:04;;;;;;;2.78;2.50;;;30.50;27.30;;;30.79;23.46;97713.94;5074547;28;20048;-41
2022/07/30 14:31:33;;;;;;;3.50;2.75;;;30.50;26.90;;;30.87;24.12;97715.22;5090030;28;20062;-41
2022/07/30 14:34:03;;;;;;;3.35;2.55;;;30.40;27.10;;;30.81;23.76;97708.16;5073509;28;20349;-41
2022/07/30 14:36:31;;;;;;;2.72;2.50;;;30.30;27.30;;;30.97;24.06;97712.38;5090264;28;20249;-41
2022/07/30 14:39:03;;;;;;;3.67;2.50;;;30.70;27.20;;;30.97;23.50;97717.06;5088746;28;20055;-41
2022/07/30 14:41:31;;;;;;;2.90;2.60;;;30.40;27.10;;;31.05;23.67;97710.91;5089315;28;20362;-41
2022/07/30 14:43:59;;;;;;;2.60;2.40;;;30.70;27.00;;;31.18;23.70;97712.97;5088860;28;20051;-41
2022/07/30 14:46:27;;;;;;;2.72;2.53;;;30.80;26.80;;;31.18;23.56;97718.47;5089982;28;20048;-41
2022/07/30 14:48:54;;;;;;;3.47;3.17;;;30.80;27.20;;;31.28;23.13;97719.44;5088777;28;20055;-41
2022/07/30 14:51:22;;;;;;;2.50;2.15;;;30.70;26.90;;;31.15;23.75;97705.28;5088697;28;20334;-41
2022/07/30 14:53:55;;;;;;;3.10;2.75;;;30.40;27.20;;;31.24;23.32;97719.22;5089537;28;20063;-42
2022/07/30 14:56:23;;;;;;;5.30;2.65;;;30.80;27.20;;;31.45;23.70;97713.47;5073300;28;20052;-41
2022/07/30 14:58:53;;;;;;;3.40;2.85;;;31.00;27.00;;;31.48;23.08;97719.19;5089468;28;20059;-41
2022/07/30 15:01:20;;;;;;;4.20;2.75;;;31.00;27.10;;;31.61;23.28;97720.41;5094305;28;20052;-42
2022/07/30 15:03:49;;;;;;;3.20;2.90;;;31.10;26.90;;;31.63;22.61;97703.63;5106633;28;20035;-41
2022/07/30 15:06:17;;;;;;;3.53;2.70;;;31.00;26.70;;;31.79;23.03;97710.50;5086937;28;20051;-41
2022/07/30 15:08:45;;;;;;;3.17;2.90;;;31.30;26.80;;;31.87;22.57;97707.09;5088403;28;20048;-41
2022/07/30 15:11:13;;;;;;;3.92;2.63;;;31.50;26.30;;;31.83;22.60;97710.75;5086072;28;20233;-41
2022/07/30 15:13:41;;;;;;;4.63;3.10;;;30.90;26.10;;;31.63;23.00;97706.38;5070616;28;20058;-41
2022/07/30 15:16:19;;;;;;;2.72;2.53;;;30.80;26.90;;;31.53;23.24;97710.88;5088374;28;20446;-41
2022/07/30 15:18:48;;;;;;;4.20;3.80;;;30.60;26.80;;;31.24;23.27;97702.72;5087596;28;20354;-41
2022/07/30 15:21:16;;;;;;;2.50;2.25;;;30.20;27.50;;;30.93;23.53;97716.00;5088175;28;20341;-41
2022/07/30 15:23:44;;;;;;;3.67;2.50;;;29.50;27.80;;;30.55;23.49;97719.38;5088341;28;20321;-41
2022/07/30 15:26:12;;;;;;;2.83;2.60;;;29.30;27.80;;;30.53;23.73;97707.06;5104479;28;20040;-41
2022/07/30 15:28:40;;;;;;;3.15;2.85;;;29.40;27.90;;;30.56;24.06;97706.47;5087306;28;20237;-41
2022/07/30 15:31:08;;;;;;;2.60;2.40;;;29.60;27.80;;;30.75;24.03;97706.56;5089090;28;20070;-41
2022/07/30 15:33:40;;;;;;;4.22;3.15;;;30.10;27.90;;;31.01;23.68;97701.63;5088807;28;20064;-41
2022/07/30 15:36:09;;;;;;;4.53;2.72;;;30.50;27.20;;;30.86;23.85;97713.56;5088522;28;20246;-40
2022/07/30 15:38:38;;;;;;;6.40;5.82;;;29.80;27.50;;;30.61;24.02;97712.75;5088972;27;20345;-40
2022/07/30 15:41:06;;;;;;;3.30;3.00;;;29.60;27.90;;;30.32;24.06;97706.41;5089619;28;20070;-40
2022/07/30 15:43:40;;;;;;;24.23;21.88;;;29.20;28.30;;;30.29;24.49;97713.28;5087362;28;20047;-40
2022/07/30 15:46:08;;;;;;;8.77;8.02;;;29.30;28.40;;;30.42;24.69;97706.34;5103315;28;20387;-40
2022/07/30 15:48:36;;;;;;;2.95;2.67;;;29.60;28.30;;;30.76;24.15;97691.72;5097071;28;20070;-41
2022/07/30 15:51:04;;;;;;;2.95;2.60;;;30.10;28.10;;;31.13;23.81;97699.25;5086929;28;20060;-40
2022/07/30 15:53:32;;;;;;;4.90;3.60;;;30.60;27.50;;;31.47;23.85;97700.25;5086407;28;20058;-40
2022/07/30 15:56:00;;;;;;;2.78;2.58;;;31.00;27.50;;;31.73;22.80;97693.25;5087626;28;20052;-41
2022/07/30 15:58:28;;;;;;;4.05;2.65;;;31.10;26.70;;;31.85;22.30;97689.25;5085973;28;20056;-40
2022/07/30 16:00:56;;;;;;;2.50;2.30;;;31.10;26.60;;;31.93;22.62;97703.16;5086622;28;20058;-40
2022/07/30 16:03:24;;;;;;;2.70;2.50;;;31.10;26.10;;;31.90;22.06;97695.50;5086516;28;20059;-40
2022/07/30 16:05:52;;;;;;;6.43;3.33;;;30.90;25.70;;;31.93;22.38;97700.41;5069491;28;20058;-41
2022/07/30 16:08:21;;;;;;;4.10;3.15;;;31.00;26.60;;;31.93;21.81;97683.88;5086286;28;20062;-41
2022/07/30 16:10:50;;;;;;;5.35;4.85;;;30.90;25.80;;;31.97;22.46;97681.38;5086210;28;20039;-40
2022/07/30 16:13:18;;;;;;;4.95;2.85;;;31.00;26.30;;;31.84;22.47;97682.13;5088399;28;20044;-40
2022/07/30 16:15:46;;;;;;;2.75;2.20;;;30.80;26.20;;;31.73;21.81;97684.19;5087461;28;20063;-40
2022/07/30 16:18:14;;;;;;;4.60;4.18;;;30.70;26.40;;;31.62;22.23;97675.28;5086636;28;20048;-40
2022/07/30 16:20:41;;;;;;;4.45;4.05;;;30.50;26.60;;;31.65;23.23;97688.44;5087084;28;20056;-40
2022/07/30 16:23:09;;;;;;;27.83;25.30;;;30.80;26.90;;;31.52;22.79;97679.00;5086672;28;20074;-40
2022/07/30 16:25:43;;;;;;;36.00;32.42;;;30.70;26.90;;;31.43;23.46;97675.25;5087621;28;20052;-41
2022/07/30 16:28:11;;;;;;;25.85;21.10;;;30.60;27.30;;;31.37;23.20;97681.94;5070327;28;20040;-40
2022/07/30 16:30:39;;;;;;;7.97;7.25;;;30.50;27.20;;;31.29;23.42;97682.56;5067765;28;20056;-40
2022/07/30 16:33:19;;;;;;;4.07;3.70;;;30.40;27.30;;;31.12;23.59;97677.59;5071847;28;20051;-40